createdAt,value
2019-05-23T00:02:32.341Z,18.37
2019-05-23T00:05:21.185Z,19.65
2019-05-23T00:08:01.752Z,18.48
2019-05-23T00:10:44.555Z,20.05
2019-05-23T00:13:39.968Z,17.48
2019-05-23T00:16:21.578Z,19.25
2019-05-23T00:18:59.670Z,19.20
2019-05-23T00:21:40.107Z,18.73
2019-05-23T00:24:18.773Z,18.82
2019-05-23T00:26:58.846Z,19.20
2019-05-23T00:29:40.338Z,20.65
2019-05-23T00:32:29.524Z,20.80
2019-05-23T00:35:07.500Z,19.82
2019-05-23T00:37:47.595Z,18.23
2019-05-23T00:40:26.065Z,18.60
2019-05-23T00:43:06.394Z,16.35
2019-05-23T00:45:44.143Z,16.70
2019-05-23T00:48:22.459Z,16.35
2019-05-23T00:51:04.443Z,14.43
2019-05-23T00:53:41.569Z,14.95
2019-05-23T00:56:21.422Z,16.52
2019-05-23T00:58:59.244Z,16.23
2019-05-23T01:01:38.020Z,16.12
2019-05-23T01:04:17.907Z,17.20
2019-05-23T01:06:57.206Z,17.27
2019-05-23T01:09:34.881Z,16.52
2019-05-23T01:12:13.739Z,17.85
2019-05-23T01:14:52.109Z,17.90
2019-05-23T01:17:31.512Z,17.82
2019-05-23T01:20:11.209Z,17.80
2019-05-23T01:22:49.860Z,18.12
2019-05-23T01:25:28.471Z,20.37
2019-05-23T01:28:09.086Z,28.70
2019-05-23T01:30:49.802Z,19.65
2019-05-23T01:33:27.860Z,22.10
2019-05-23T01:36:06.663Z,21.82
2019-05-23T01:38:44.946Z,22.25
2019-05-23T01:41:23.655Z,24.20
2019-05-23T01:44:01.312Z,25.02
2019-05-23T01:46:41.858Z,26.00
2019-05-23T01:49:19.756Z,23.77
2019-05-23T01:51:58.527Z,25.88
2019-05-23T01:54:36.790Z,24.43
2019-05-23T01:57:15.730Z,23.10
2019-05-23T02:00:09.133Z,25.32
2019-05-23T02:02:39.492Z,22.70
2019-05-23T02:05:19.101Z,28.05
2019-05-23T02:07:58.429Z,30.32
2019-05-23T02:10:37.376Z,25.65
2019-05-23T02:13:15.425Z,16.45
2019-05-23T02:15:54.604Z,13.93
2019-05-23T02:18:33.339Z,13.08
2019-05-23T02:21:12.115Z,13.32
2019-05-23T02:23:49.700Z,13.05
2019-05-23T02:26:27.709Z,12.85
2019-05-23T02:29:06.353Z,13.32
2019-05-23T02:31:46.295Z,14.80
2019-05-23T02:34:23.870Z,15.85
2019-05-23T02:37:02.617Z,15.70
2019-05-23T02:39:59.461Z,18.02
2019-05-23T02:42:44.702Z,17.12
2019-05-23T02:45:25.965Z,18.35
2019-05-23T02:48:05.158Z,19.17
2019-05-23T02:50:53.913Z,19.75
2019-05-23T02:53:32.866Z,22.87
2019-05-23T02:56:12.904Z,21.93
2019-05-23T02:59:06.237Z,19.12
2019-05-23T03:02:16.023Z,19.32
2019-05-23T03:04:56.117Z,21.05
2019-05-23T03:07:36.350Z,16.15
2019-05-23T03:10:14.654Z,14.87
2019-05-23T03:12:54.383Z,17.32
2019-05-23T03:15:34.467Z,14.38
2019-05-23T03:18:11.652Z,13.45
2019-05-23T03:20:51.502Z,13.05
2019-05-23T03:23:29.888Z,13.30
2019-05-23T03:26:41.714Z,13.80
2019-05-23T03:29:20.160Z,14.50
2019-05-23T03:32:05.120Z,12.93
2019-05-23T03:34:46.683Z,13.50
2019-05-23T03:37:25.195Z,13.20
2019-05-23T03:40:03.093Z,12.15
2019-05-23T03:42:41.599Z,13.35
2019-05-23T03:45:25.261Z,12.25
2019-05-23T03:48:02.597Z,11.73
2019-05-23T03:50:40.550Z,11.45
2019-05-23T03:53:18.088Z,11.78
2019-05-23T03:55:56.141Z,12.65
2019-05-23T03:58:37.045Z,11.48
2019-05-23T04:01:16.377Z,11.25
2019-05-23T04:03:55.716Z,9.93
2019-05-23T04:06:35.361Z,10.93
2019-05-23T04:09:14.382Z,11.03
2019-05-23T04:11:51.855Z,10.15
2019-05-23T04:14:29.621Z,11.08
2019-05-23T04:17:11.736Z,9.90
2019-05-23T04:19:49.296Z,10.58
2019-05-23T04:22:27.153Z,10.10
2019-05-23T04:25:04.375Z,10.82
2019-05-23T04:27:42.796Z,10.75
2019-05-23T04:30:21.066Z,9.30
2019-05-23T04:32:59.109Z,11.85
2019-05-23T04:35:36.572Z,11.50
2019-05-23T04:38:17.455Z,9.75
2019-05-23T04:43:31.609Z,10.23
2019-05-23T04:46:09.527Z,10.08
2019-05-23T04:48:48.030Z,9.63
2019-05-23T04:51:27.353Z,10.55
2019-05-23T04:54:06.483Z,9.58
2019-05-23T04:56:44.454Z,10.38
2019-05-23T04:59:23.214Z,10.60
2019-05-23T05:02:00.777Z,9.45
2019-05-23T05:04:38.739Z,9.90
2019-05-23T05:07:16.729Z,9.80
2019-05-23T05:09:55.968Z,9.45
2019-05-23T05:12:34.988Z,9.23
2019-05-23T05:15:12.775Z,9.25
2019-05-23T05:17:50.020Z,10.18
2019-05-23T05:20:27.773Z,9.18
2019-05-23T05:23:05.061Z,10.35
2019-05-23T05:25:43.355Z,9.58
2019-05-23T05:28:20.763Z,9.30
2019-05-23T05:30:59.152Z,8.23
2019-05-23T05:33:36.813Z,8.90
2019-05-23T05:36:14.089Z,9.48
2019-05-23T05:38:51.357Z,8.93
2019-05-23T05:41:32.948Z,8.70
2019-05-23T05:44:12.031Z,8.63
2019-05-23T05:46:49.648Z,8.53
2019-05-23T05:49:27.814Z,9.13
2019-05-23T05:52:06.588Z,8.38
2019-05-23T05:54:44.087Z,8.15
2019-05-23T05:57:21.862Z,8.93
2019-05-23T06:00:00.104Z,7.80
2019-05-23T06:02:39.066Z,8.73
2019-05-23T06:05:25.529Z,8.13
2019-05-23T06:08:04.000Z,8.45
2019-05-23T06:10:41.923Z,8.85
2019-05-23T06:13:20.713Z,8.20
2019-05-23T06:15:58.867Z,7.70
2019-05-23T06:18:36.312Z,7.53
2019-05-23T06:21:15.707Z,8.13
2019-05-23T06:23:53.660Z,6.97
2019-05-23T06:26:31.130Z,7.22
2019-05-23T06:29:09.786Z,8.03
2019-05-23T06:31:47.583Z,8.03
2019-05-23T06:34:27.218Z,6.97
2019-05-23T06:37:05.389Z,7.78
2019-05-23T06:39:43.607Z,7.25
2019-05-23T06:42:21.400Z,7.28
2019-05-23T06:45:00.054Z,6.65
2019-05-23T06:47:38.471Z,8.10
2019-05-23T06:50:19.770Z,6.92
2019-05-23T06:52:57.118Z,8.13
2019-05-23T06:55:35.705Z,7.33
2019-05-23T06:58:13.651Z,6.97
2019-05-23T07:00:51.304Z,8.25
2019-05-23T07:03:41.602Z,7.28
2019-05-23T07:06:08.559Z,8.00
2019-05-23T07:08:46.771Z,7.33
2019-05-23T07:11:25.565Z,7.65
2019-05-23T07:14:02.905Z,8.60
2019-05-23T07:16:40.755Z,8.50
2019-05-23T07:19:19.401Z,9.35
2019-05-23T07:21:57.105Z,7.85
2019-05-23T07:24:34.918Z,8.93
2019-05-23T07:27:13.304Z,8.50
2019-05-23T07:29:50.598Z,8.38
2019-05-23T07:32:28.444Z,7.28
2019-05-23T07:35:05.220Z,7.28
2019-05-23T07:37:43.252Z,7.12
2019-05-23T07:40:21.006Z,7.50
2019-05-23T07:42:59.303Z,9.30
2019-05-23T07:45:42.359Z,7.70
2019-05-23T07:48:20.403Z,7.95
2019-05-23T07:50:58.792Z,7.90
2019-05-23T07:53:54.381Z,7.67
2019-05-23T07:56:34.279Z,8.03
2019-05-23T07:59:14.738Z,7.60
2019-05-23T08:01:57.587Z,7.55
2019-05-23T08:04:35.373Z,7.75
2019-05-23T08:07:14.155Z,7.70
2019-05-23T08:09:53.068Z,6.97
2019-05-23T08:12:30.274Z,8.03
2019-05-23T08:15:08.634Z,8.33
2019-05-23T08:17:46.048Z,8.00
2019-05-23T08:20:28.503Z,8.13
2019-05-23T08:23:07.043Z,8.00
2019-05-23T08:25:44.329Z,8.40
2019-05-23T08:28:22.287Z,9.75
2019-05-23T08:31:01.067Z,9.03
2019-05-23T08:33:39.497Z,7.83
2019-05-23T08:36:16.678Z,9.08
2019-05-23T08:38:54.408Z,8.78
2019-05-23T08:41:34.527Z,9.43
2019-05-23T08:44:11.974Z,9.53
2019-05-23T08:46:49.477Z,9.35
2019-05-23T08:49:27.225Z,9.03
2019-05-23T08:52:05.842Z,9.38
2019-05-23T08:54:45.082Z,9.15
2019-05-23T08:57:23.946Z,7.28
2019-05-23T09:00:01.205Z,6.95
2019-05-23T09:02:41.541Z,6.67
2019-05-23T09:05:20.135Z,6.80
2019-05-23T09:07:58.129Z,7.47
2019-05-23T09:10:37.286Z,7.08
2019-05-23T09:13:15.477Z,6.97
2019-05-23T09:15:54.028Z,6.55
2019-05-23T09:18:32.107Z,7.20
2019-05-23T09:21:09.948Z,7.17
2019-05-23T09:23:48.556Z,8.23
2019-05-23T09:26:28.272Z,7.40
2019-05-23T09:29:07.680Z,8.68
2019-05-23T09:31:45.162Z,9.05
2019-05-23T09:34:40.331Z,7.87
2019-05-23T09:37:19.429Z,8.98
2019-05-23T09:39:57.007Z,8.55
2019-05-23T09:42:34.185Z,7.30
2019-05-23T09:45:12.389Z,7.60
2019-05-23T09:47:51.217Z,5.85
2019-05-23T09:50:29.224Z,5.12
2019-05-23T09:53:06.753Z,4.53
2019-05-23T09:55:45.604Z,4.58
2019-05-23T09:58:23.662Z,3.75
2019-05-23T10:01:01.481Z,4.22
2019-05-23T10:03:39.184Z,4.05
2019-05-23T10:06:17.166Z,4.20
2019-05-23T10:08:56.216Z,4.75
2019-05-23T10:11:34.380Z,6.22
2019-05-23T10:14:15.578Z,11.63
2019-05-23T10:16:53.341Z,12.78
2019-05-23T10:19:30.562Z,7.08
2019-05-23T10:22:08.343Z,7.08
2019-05-23T10:24:46.311Z,6.12
2019-05-23T10:27:24.705Z,5.90
2019-05-23T10:30:03.204Z,5.78
2019-05-23T10:32:40.723Z,5.10
2019-05-23T10:35:18.251Z,4.30
2019-05-23T10:37:56.884Z,4.40
2019-05-23T10:40:34.458Z,5.58
2019-05-23T10:43:12.279Z,5.35
2019-05-23T10:45:50.360Z,5.72
2019-05-23T10:48:29.423Z,5.40
2019-05-23T10:51:07.391Z,6.45
2019-05-23T10:53:45.123Z,4.83
2019-05-23T10:56:22.605Z,4.90
2019-05-23T10:59:00.215Z,4.95
2019-05-23T11:01:38.518Z,4.80
2019-05-23T11:04:16.348Z,4.80
2019-05-23T11:06:53.999Z,4.33
2019-05-23T11:09:37.738Z,4.10
2019-05-23T11:12:11.774Z,4.15
2019-05-23T11:14:49.211Z,4.50
2019-05-23T11:17:26.709Z,4.75
2019-05-23T11:20:04.661Z,4.80
2019-05-23T11:22:42.191Z,5.20
2019-05-23T11:25:20.021Z,5.85
2019-05-23T11:27:57.365Z,5.97
2019-05-23T11:30:45.480Z,6.40
2019-05-23T11:33:24.743Z,6.72
2019-05-23T11:36:02.525Z,6.05
2019-05-23T11:38:40.218Z,6.40
2019-05-23T11:41:18.781Z,5.92
2019-05-23T11:43:55.726Z,6.65
2019-05-23T11:46:36.659Z,6.83
2019-05-23T11:49:14.453Z,8.85
2019-05-23T11:51:53.560Z,7.00
2019-05-23T11:54:31.180Z,7.90
2019-05-23T11:57:10.986Z,6.65
2019-05-23T11:59:48.519Z,6.40
2019-05-23T12:02:33.645Z,6.30
2019-05-23T12:05:16.608Z,6.58
2019-05-23T12:07:55.403Z,6.30
2019-05-23T12:10:35.691Z,6.92
2019-05-23T12:13:14.663Z,7.67
2019-05-23T12:15:53.209Z,6.53
2019-05-23T12:18:30.731Z,6.50
2019-05-23T12:21:08.136Z,6.58
2019-05-23T12:23:47.213Z,6.00
2019-05-23T12:26:24.912Z,5.85
2019-05-23T12:29:02.326Z,5.67
2019-05-23T12:31:39.678Z,6.37
2019-05-23T12:34:18.461Z,5.62
2019-05-23T12:37:16.845Z,6.08
2019-05-23T12:39:36.630Z,5.60
2019-05-23T12:42:13.647Z,6.25
2019-05-23T12:44:51.886Z,5.80
2019-05-23T12:47:47.465Z,6.10
2019-05-23T12:50:28.925Z,6.30
2019-05-23T12:53:06.390Z,6.27
2019-05-23T12:55:44.602Z,5.75
2019-05-23T12:58:22.589Z,5.80
2019-05-23T13:01:03.075Z,6.05
2019-05-23T13:03:40.717Z,6.67
2019-05-23T13:06:19.589Z,6.33
2019-05-23T13:08:58.669Z,6.80
2019-05-23T13:11:37.422Z,6.25
2019-05-23T13:14:16.466Z,6.12
2019-05-23T13:17:00.409Z,6.33
2019-05-23T13:19:35.529Z,6.47
2019-05-23T13:22:12.957Z,6.60
2019-05-23T13:24:53.134Z,6.40
2019-05-23T13:27:33.562Z,7.10
2019-05-23T13:30:11.112Z,6.67
2019-05-23T13:32:49.717Z,7.12
2019-05-23T13:35:27.950Z,7.83
2019-05-23T13:38:05.175Z,7.03
2019-05-23T13:40:43.667Z,7.62
2019-05-23T13:43:24.595Z,8.40
2019-05-23T13:46:02.098Z,12.75
2019-05-23T13:48:42.508Z,9.68
2019-05-23T13:51:19.683Z,8.95
2019-05-23T13:53:57.235Z,9.13
2019-05-23T13:56:34.473Z,10.05
2019-05-23T13:59:12.683Z,10.55
2019-05-23T14:01:50.250Z,9.30
2019-05-23T14:04:29.663Z,8.25
2019-05-23T14:07:09.812Z,8.43
2019-05-23T14:09:48.129Z,7.97
2019-05-23T14:12:28.431Z,8.30
2019-05-23T14:15:07.848Z,8.28
2019-05-23T14:17:46.214Z,8.20
2019-05-23T14:20:25.761Z,8.23
2019-05-23T14:23:09.038Z,8.70
2019-05-23T14:25:50.910Z,8.43
2019-05-23T14:28:29.237Z,8.60
2019-05-23T14:31:25.306Z,7.83
2019-05-23T14:34:07.904Z,7.83
2019-05-23T14:36:55.223Z,8.68
2019-05-23T14:39:50.525Z,7.37
2019-05-23T14:42:53.182Z,6.25
2019-05-23T14:45:46.837Z,8.23
2019-05-23T14:48:43.481Z,9.88
2019-05-23T14:51:38.985Z,10.48
2019-05-23T14:54:24.539Z,8.20
2019-05-23T14:57:02.147Z,6.22
2019-05-23T14:59:40.271Z,9.15
2019-05-23T15:02:20.945Z,7.70
2019-05-23T15:04:59.803Z,6.10
2019-05-23T15:07:37.876Z,5.90
2019-05-23T15:10:16.171Z,6.42
2019-05-23T15:12:55.009Z,7.25
2019-05-23T15:15:33.824Z,5.47
2019-05-23T15:18:11.368Z,7.10
2019-05-23T15:20:49.691Z,8.33
2019-05-23T15:23:27.487Z,10.60
2019-05-23T15:26:21.543Z,7.62
2019-05-23T15:28:46.223Z,7.80
2019-05-23T15:31:24.207Z,7.40
2019-05-23T15:34:01.723Z,6.55
2019-05-23T15:36:40.315Z,8.53
2019-05-23T15:39:19.498Z,7.00
2019-05-23T15:41:56.750Z,6.60
2019-05-23T15:44:35.749Z,8.35
2019-05-23T15:47:13.520Z,7.08
2019-05-23T15:49:51.781Z,7.35
2019-05-23T15:52:54.025Z,6.70
2019-05-23T15:55:55.562Z,6.70
2019-05-23T15:58:49.921Z,7.00
2019-05-23T16:01:34.259Z,7.03
2019-05-23T16:04:14.142Z,8.10
2019-05-23T16:06:51.964Z,7.62
2019-05-23T16:09:31.351Z,7.65
2019-05-23T16:12:10.191Z,7.47
2019-05-23T16:14:49.421Z,7.47
2019-05-23T16:17:27.662Z,6.90
2019-05-23T16:20:05.830Z,7.97
2019-05-23T16:22:43.747Z,7.55
2019-05-23T16:25:21.255Z,7.08
2019-05-23T16:27:58.912Z,7.53
2019-05-23T16:30:37.623Z,6.95
2019-05-23T16:33:14.841Z,7.45
2019-05-23T16:35:52.284Z,7.40
2019-05-23T16:38:29.970Z,8.45
2019-05-23T16:41:11.307Z,8.15
2019-05-23T16:43:47.820Z,8.13
2019-05-23T16:46:27.228Z,7.70
2019-05-23T16:49:04.782Z,8.15
2019-05-23T16:51:42.407Z,7.97
2019-05-23T16:54:21.013Z,7.83
2019-05-23T16:57:16.809Z,8.43
2019-05-23T17:00:12.430Z,8.68
2019-05-23T17:03:15.301Z,8.23
2019-05-23T17:06:07.439Z,9.33
2019-05-23T17:09:03.033Z,8.58
2019-05-23T17:12:09.037Z,9.33
2019-05-23T17:15:14.499Z,8.55
2019-05-23T17:18:05.646Z,8.73
2019-05-23T17:20:58.839Z,8.70
2019-05-23T17:24:03.860Z,8.70
2019-05-23T17:26:59.891Z,8.78
2019-05-23T17:29:51.959Z,9.00
2019-05-23T17:32:36.236Z,8.55
2019-05-23T17:35:14.707Z,8.75
2019-05-23T17:37:52.763Z,8.83
2019-05-23T17:40:32.158Z,8.60
2019-05-23T17:43:11.289Z,8.73
2019-05-23T17:45:48.923Z,8.65
2019-05-23T17:48:27.905Z,9.48
2019-05-23T17:51:05.016Z,8.90
2019-05-23T17:53:43.047Z,7.95
2019-05-23T17:56:20.339Z,6.80
2019-05-23T17:58:58.569Z,7.30
2019-05-23T18:01:38.959Z,7.65
2019-05-23T18:04:18.079Z,7.83
2019-05-23T18:06:55.416Z,7.35
2019-05-23T18:09:33.975Z,7.83
2019-05-23T18:12:11.437Z,7.42
2019-05-23T18:14:49.033Z,7.53
2019-05-23T18:17:27.231Z,7.80
2019-05-23T18:20:09.776Z,7.45
2019-05-23T18:22:49.902Z,7.67
2019-05-23T18:25:28.614Z,5.85
2019-05-23T18:28:06.320Z,6.58
2019-05-23T18:30:58.194Z,5.58
2019-05-23T18:33:35.756Z,5.78
2019-05-23T18:36:13.630Z,5.35
2019-05-23T18:38:51.360Z,5.90
2019-05-23T18:41:30.017Z,6.40
2019-05-23T18:44:07.439Z,6.10
2019-05-23T18:46:50.673Z,6.28
2019-05-23T18:49:28.194Z,6.45
2019-05-23T18:52:07.736Z,6.65
2019-05-23T18:54:45.524Z,6.50
2019-05-23T18:57:24.180Z,6.53
2019-05-23T19:00:01.463Z,6.17
2019-05-23T19:02:41.328Z,6.67
2019-05-23T19:05:19.157Z,5.72
2019-05-23T19:07:58.045Z,6.92
2019-05-23T19:10:34.984Z,7.47
2019-05-23T19:13:12.967Z,7.60
2019-05-23T19:15:50.231Z,7.80
2019-05-23T19:18:30.379Z,8.03
2019-05-23T19:21:09.296Z,8.05
2019-05-23T19:23:49.266Z,8.80
2019-05-23T19:26:26.331Z,8.15
2019-05-23T19:29:03.758Z,8.88
2019-05-23T19:31:41.537Z,8.88
2019-05-23T19:34:20.279Z,8.90
2019-05-23T19:36:57.799Z,9.28
2019-05-23T19:39:40.499Z,9.58
2019-05-23T19:42:19.440Z,9.75
2019-05-23T19:44:58.015Z,9.68
2019-05-23T19:47:35.668Z,10.05
2019-05-23T19:50:13.324Z,10.85
2019-05-23T19:52:50.817Z,11.00
2019-05-23T19:55:31.553Z,11.00
2019-05-23T19:58:10.961Z,10.78
2019-05-23T20:00:50.491Z,12.18
2019-05-23T20:03:32.487Z,11.33
2019-05-23T20:06:09.590Z,11.28
2019-05-23T20:08:48.127Z,12.50
2019-05-23T20:11:25.526Z,12.63
2019-05-23T20:14:02.629Z,11.70
2019-05-23T20:16:40.979Z,14.30
2019-05-23T20:19:18.120Z,14.00
2019-05-23T20:21:57.235Z,14.35
2019-05-23T20:24:34.742Z,13.58
2019-05-23T20:27:14.536Z,13.25
2019-05-23T20:29:52.076Z,10.45
2019-05-23T20:32:29.501Z,11.73
2019-05-23T20:35:06.983Z,12.18
2019-05-23T20:37:46.360Z,12.10
2019-05-23T20:40:24.621Z,11.95
2019-05-23T20:43:02.713Z,11.03
2019-05-23T20:45:40.046Z,12.18
2019-05-23T20:48:18.801Z,12.23
2019-05-23T20:50:56.628Z,12.28
2019-05-23T20:53:34.601Z,11.35
2019-05-23T20:56:11.781Z,11.33
2019-05-23T20:58:50.884Z,10.80
2019-05-23T21:01:35.770Z,11.05
2019-05-23T21:04:13.481Z,11.25
2019-05-23T21:06:50.833Z,13.38
2019-05-23T21:09:28.484Z,14.00
2019-05-23T21:12:05.863Z,13.03
2019-05-23T21:14:43.253Z,13.68
2019-05-23T21:17:20.839Z,13.32
2019-05-23T21:20:04.782Z,13.10
2019-05-23T21:22:43.914Z,13.48
2019-05-23T21:25:21.687Z,12.45
2019-05-23T21:28:01.385Z,12.80
2019-05-23T21:30:42.637Z,12.37
2019-05-23T21:33:20.322Z,11.55
2019-05-23T21:35:58.434Z,11.68
2019-05-23T21:38:36.467Z,11.20
2019-05-23T21:41:15.037Z,13.90
2019-05-23T21:43:53.893Z,13.53
2019-05-23T21:46:31.693Z,14.28
2019-05-23T21:49:09.213Z,14.55
2019-05-23T21:51:47.323Z,13.80
2019-05-23T21:54:24.655Z,12.82
2019-05-23T21:57:03.117Z,13.30
2019-05-23T21:59:41.719Z,12.47
2019-05-23T22:02:37.288Z,12.03
2019-05-23T22:05:18.086Z,12.20
2019-05-23T22:07:56.220Z,11.78
2019-05-23T22:10:33.912Z,12.47
2019-05-23T22:13:11.803Z,11.85
2019-05-23T22:15:49.263Z,11.78
2019-05-23T22:18:27.765Z,11.43
2019-05-23T22:21:05.443Z,11.43
2019-05-23T22:23:44.939Z,11.33
2019-05-23T22:26:23.019Z,11.60
2019-05-23T22:29:00.773Z,11.90
2019-05-23T22:31:41.926Z,10.82
2019-05-23T22:34:36.786Z,10.93
2019-05-23T22:37:18.289Z,12.07
2019-05-23T22:39:56.360Z,12.60
2019-05-23T22:42:34.826Z,11.78
2019-05-23T22:45:17.005Z,12.40
2019-05-23T22:47:54.423Z,12.55
2019-05-23T22:50:32.084Z,12.80
2019-05-23T22:53:09.587Z,9.20
2019-05-23T22:55:47.506Z,8.25
2019-05-23T22:58:24.853Z,9.33
2019-05-23T23:01:02.509Z,10.43
2019-05-23T23:03:39.948Z,12.07
2019-05-23T23:06:20.186Z,12.43
2019-05-23T23:08:56.969Z,12.40
2019-05-23T23:11:35.052Z,13.55
2019-05-23T23:14:12.563Z,12.93
2019-05-23T23:16:52.345Z,13.20
2019-05-23T23:19:30.123Z,13.50
2019-05-23T23:22:07.536Z,13.50
2019-05-23T23:24:45.669Z,13.78
2019-05-23T23:27:23.702Z,14.28
2019-05-23T23:30:01.254Z,14.35
2019-05-23T23:32:39.034Z,13.72
2019-05-23T23:35:17.004Z,14.78
2019-05-23T23:37:56.911Z,15.53
2019-05-23T23:40:34.430Z,16.40
2019-05-23T23:43:14.856Z,15.98
2019-05-23T23:46:09.829Z,16.80
2019-05-23T23:49:07.584Z,15.70
2019-05-23T23:52:01.875Z,16.25
2019-05-23T23:54:56.967Z,21.37
2019-05-23T23:57:52.351Z,24.23
